Time;durP1;ratioP1;P1;durP2;ratioP2;P2;SDS_P1;SDS_P2;PMS_P1;PMS_P2;Temp;Humidity;BMP_temperature;BMP_pressure;BME280_temperature;BME280_humidity;BME280_pressure;Samples;Min_cycle;Max_cycle;Signal;HPM_P1;HPM_P2
2022/06/11 00:01:33;;;;;;;4.47;1.87;;;;;;;;;;5045839;28;20462;-72
2022/06/11 00:04:02;;;;;;;2.10;1.70;;;;;;;;;;5044645;28;20509;-71
2022/06/11 00:06:29;;;;;;;1.67;1.30;;;;;;;;;;5046490;28;20441;-70
2022/06/11 00:08:55;;;;;;;1.67;1.57;;;;;;;;;;5047567;28;20461;-71
2022/06/11 00:11:21;;;;;;;1.50;1.50;;;;;;;;;;5044443;28;20473;-71
2022/06/11 00:13:47;;;;;;;1.80;1.70;;;;;;;;;;5046432;28;20893;-70
2022/06/11 00:16:15;;;;;;;2.60;1.80;;;;;;;;;;5045659;28;20513;-72
2022/06/11 00:18:42;;;;;;;3.53;2.23;;;;;;;;;;5044788;28;20533;-73
2022/06/11 00:21:08;;;;;;;2.60;2.30;;;;;;;;;;5043560;28;20424;-72
2022/06/11 00:23:35;;;;;;;6.97;2.70;;;;;;;;;;5045586;28;20434;-72
2022/06/11 00:26:02;;;;;;;2.03;1.93;;;;;;;;;;5047240;28;20483;-71
2022/06/11 00:28:28;;;;;;;2.20;1.90;;;;;;;;;;5047049;28;20442;-71
2022/06/11 00:30:54;;;;;;;1.83;1.63;;;;;;;;;;5046380;28;20419;-76
2022/06/11 00:33:20;;;;;;;2.73;2.53;;;;;;;;;;5045845;28;20478;-70
2022/06/11 00:35:46;;;;;;;7.07;1.90;;;;;;;;;;5045825;28;20929;-71
2022/06/11 00:38:12;;;;;;;3.60;1.67;;;;;;;;;;5045361;28;20434;-74
2022/06/11 00:40:39;;;;;;;1.60;1.50;;;;;;;;;;5044094;28;20450;-73
2022/06/11 00:43:06;;;;;;;1.90;1.77;;;;;;;;;;5050797;28;20449;-73
2022/06/11 00:45:41;;;;;;;6.40;1.80;;;;;;;;;;5048963;28;21316;-72
2022/06/11 00:48:15;;;;;;;10.00;1.73;;;;;;;;;;5051520;28;20434;-73
2022/06/11 00:50:49;;;;;;;2.93;2.10;;;;;;;;;;5045453;28;20479;-73
2022/06/11 00:53:33;;;;;;;2.07;1.97;;;;;;;;;;5050551;28;20509;-74
2022/06/11 00:56:01;;;;;;;2.87;1.73;;;;;;;;;;5049257;28;20430;-74
2022/06/11 00:58:30;;;;;;;1.83;1.83;;;;;;;;;;5050243;28;20529;-72
2022/06/11 01:00:58;;;;;;;1.93;1.43;;;;;;;;;;5049824;28;20513;-73
2022/06/11 01:03:27;;;;;;;3.17;1.53;;;;;;;;;;5049492;28;20472;-73
2022/06/11 01:06:16;;;;;;;6.50;2.03;;;;;;;;;;5046973;28;20788;-71
2022/06/11 01:09:01;;;;;;;1.93;1.70;;;;;;;;;;5026303;28;20430;-74
2022/06/11 01:11:32;;;;;;;1.73;1.73;;;;;;;;;;5046233;28;20434;-73
2022/06/11 01:14:07;;;;;;;5.67;1.97;;;;;;;;;;5049183;28;20489;-75
2022/06/11 01:16:42;;;;;;;5.80;1.20;;;;;;;;;;5047517;28;20434;-76
2022/06/11 01:19:08;;;;;;;2.10;2.00;;;;;;;;;;5050292;28;20517;-72
2022/06/11 01:21:42;;;;;;;3.13;2.90;;;;;;;;;;5050858;28;20871;-76
2022/06/11 01:24:08;;;;;;;2.13;2.03;;;;;;;;;;5050534;28;20453;-73
2022/06/11 01:26:37;;;;;;;3.63;2.10;;;;;;;;;;5048938;28;20804;-72
2022/06/11 01:29:11;;;;;;;2.13;1.80;;;;;;;;;;5052546;28;20266;-72
2022/06/11 01:31:56;;;;;;;1.77;1.57;;;;;;;;;;5046948;28;20513;-72
2022/06/11 01:34:30;;;;;;;1.17;1.17;;;;;;;;;;5050759;28;20573;-74
2022/06/11 01:37:01;;;;;;;4.70;1.67;;;;;;;;;;5049310;28;20441;-75
2022/06/11 01:39:45;;;;;;;1.20;1.20;;;;;;;;;;5049344;28;20464;-72
2022/06/11 01:42:17;;;;;;;1.00;1.00;;;;;;;;;;5047096;28;20529;-71
2022/06/11 01:44:44;;;;;;;1.63;1.50;;;;;;;;;;5045376;28;20441;-75
2022/06/11 01:47:12;;;;;;;1.70;1.40;;;;;;;;;;5048728;28;20466;-71
2022/06/11 01:49:43;;;;;;;1.60;1.50;;;;;;;;;;5046576;28;20427;-72
2022/06/11 01:52:30;;;;;;;1.57;1.47;;;;;;;;;;5046341;28;20507;-72
2022/06/11 01:55:22;;;;;;;2.33;2.20;;;;;;;;;;5049129;28;20451;-71
2022/06/11 01:58:06;;;;;;;2.93;2.07;;;;;;;;;;5048401;28;20479;-71
2022/06/11 02:00:45;;;;;;;1.60;1.60;;;;;;;;;;5048668;28;20450;-72
2022/06/11 02:03:22;;;;;;;4.00;1.30;;;;;;;;;;5049294;28;20445;-71
2022/06/11 02:06:27;;;;;;;1.60;1.47;;;;;;;;;;5050140;28;20445;-72
2022/06/11 02:09:02;;;;;;;1.70;1.60;;;;;;;;;;5028934;28;20553;-72
2022/06/11 02:11:45;;;;;;;1.87;1.77;;;;;;;;;;5026140;28;20937;-72
2022/06/11 02:14:12;;;;;;;1.33;1.30;;;;;;;;;;5042638;28;20481;-74
2022/06/11 02:16:44;;;;;;;1.33;1.33;;;;;;;;;;5050558;28;20457;-71
2022/06/11 02:19:12;;;;;;;3.60;1.60;;;;;;;;;;5048969;28;20426;-72
2022/06/11 02:21:40;;;;;;;1.53;1.20;;;;;;;;;;5049735;28;20788;-71
2022/06/11 02:24:09;;;;;;;2.23;1.30;;;;;;;;;;5048627;28;20466;-71
2022/06/11 02:26:38;;;;;;;2.10;1.67;;;;;;;;;;5046502;28;20439;-71
2022/06/11 02:29:05;;;;;;;6.73;1.80;;;;;;;;;;5050752;28;20434;-71
2022/06/11 02:31:34;;;;;;;3.83;1.53;;;;;;;;;;5049303;28;20435;-72
2022/06/11 02:34:04;;;;;;;2.30;1.30;;;;;;;;;;5048022;28;20580;-76
2022/06/11 02:36:32;;;;;;;1.13;1.00;;;;;;;;;;5049705;28;20443;-72
2022/06/11 02:39:00;;;;;;;2.10;1.80;;;;;;;;;;5044730;28;20509;-72
2022/06/11 02:41:28;;;;;;;4.30;1.47;;;;;;;;;;5048747;28;20529;-72
2022/06/11 02:43:54;;;;;;;2.00;1.30;;;;;;;;;;5048021;28;20433;-72
2022/06/11 02:49:09;;;;;;;5.67;1.67;;;;;;;;;;5050720;28;20429;-75
2022/06/11 02:51:35;;;;;;;1.60;1.60;;;;;;;;;;5047750;28;21003;-73
2022/06/11 02:54:01;;;;;;;1.77;1.63;;;;;;;;;;5043744;28;20482;-74
2022/06/11 02:56:27;;;;;;;1.80;1.60;;;;;;;;;;5049582;28;20484;-76
2022/06/11 02:58:53;;;;;;;1.40;1.40;;;;;;;;;;5047987;28;20430;-73
2022/06/11 03:01:20;;;;;;;2.83;1.40;;;;;;;;;;5049397;28;20852;-72
2022/06/11 03:03:48;;;;;;;1.53;1.53;;;;;;;;;;5047899;28;20449;-76
2022/06/11 03:06:14;;;;;;;1.43;1.13;;;;;;;;;;5048986;28;20430;-75
2022/06/11 03:08:41;;;;;;;1.63;1.53;;;;;;;;;;5047204;28;20446;-73
2022/06/11 03:11:07;;;;;;;1.83;1.60;;;;;;;;;;5048198;28;20426;-75
2022/06/11 03:13:33;;;;;;;1.63;1.53;;;;;;;;;;5048818;28;21476;-73
2022/06/11 03:15:59;;;;;;;1.57;1.47;;;;;;;;;;5048740;28;20491;-71
2022/06/11 03:18:25;;;;;;;1.80;1.80;;;;;;;;;;5049359;28;20438;-72
2022/06/11 03:20:51;;;;;;;3.17;1.40;;;;;;;;;;5045070;28;20434;-72
2022/06/11 03:23:18;;;;;;;1.50;1.50;;;;;;;;;;5046877;28;20517;-73
2022/06/11 03:25:44;;;;;;;1.37;1.00;;;;;;;;;;5045669;28;21067;-72
2022/06/11 03:28:11;;;;;;;1.10;1.10;;;;;;;;;;5044179;28;20450;-73
2022/06/11 03:30:37;;;;;;;1.73;1.60;;;;;;;;;;5045917;28;20430;-75
2022/06/11 03:33:04;;;;;;;3.93;0.80;;;;;;;;;;5047865;28;20601;-72
2022/06/11 03:35:30;;;;;;;8.53;1.23;;;;;;;;;;5048845;28;20926;-72
2022/06/11 03:37:56;;;;;;;1.07;1.07;;;;;;;;;;5048254;28;20513;-74
2022/06/11 03:40:22;;;;;;;1.20;1.20;;;;;;;;;;5043301;28;20430;-74
2022/06/11 03:42:48;;;;;;;0.93;0.93;;;;;;;;;;5048022;28;21083;-72
2022/06/11 03:45:14;;;;;;;1.80;1.40;;;;;;;;;;5046336;28;20462;-71
2022/06/11 03:47:40;;;;;;;5.70;1.70;;;;;;;;;;5048592;28;20465;-71
2022/06/11 03:50:09;;;;;;;1.27;1.27;;;;;;;;;;5046504;28;20525;-74
2022/06/11 03:52:35;;;;;;;1.73;1.40;;;;;;;;;;5048260;28;20556;-71
2022/06/11 03:55:01;;;;;;;2.73;1.07;;;;;;;;;;5049387;28;20488;-72
2022/06/11 03:57:27;;;;;;;1.60;1.60;;;;;;;;;;5045886;28;20445;-70
2022/06/11 03:59:53;;;;;;;4.20;1.20;;;;;;;;;;5044845;28;20431;-71
2022/06/11 04:02:19;;;;;;;8.93;1.70;;;;;;;;;;5044404;28;20918;-72
2022/06/11 04:04:45;;;;;;;2.17;1.67;;;;;;;;;;5047221;28;20572;-73
2022/06/11 04:07:13;;;;;;;1.07;1.07;;;;;;;;;;5047641;28;20421;-75
2022/06/11 04:09:40;;;;;;;1.00;1.00;;;;;;;;;;5046163;28;20914;-72
2022/06/11 04:12:09;;;;;;;6.53;1.30;;;;;;;;;;5045571;28;20442;-74
2022/06/11 04:14:35;;;;;;;1.70;1.60;;;;;;;;;;5044066;28;21077;-71
2022/06/11 04:17:07;;;;;;;3.30;1.30;;;;;;;;;;5045627;28;20462;-72
2022/06/11 04:19:37;;;;;;;1.40;1.40;;;;;;;;;;5047886;28;20450;-71
2022/06/11 04:22:04;;;;;;;3.13;2.00;;;;;;;;;;5045511;28;20435;-72
2022/06/11 04:24:30;;;;;;;8.70;1.00;;;;;;;;;;5047575;28;20438;-71
2022/06/11 04:26:58;;;;;;;1.23;1.10;;;;;;;;;;5045795;28;20437;-73
2022/06/11 04:29:26;;;;;;;1.90;1.70;;;;;;;;;;5044793;28;20430;-71
2022/06/11 04:31:53;;;;;;;1.43;1.37;;;;;;;;;;5045125;28;20856;-71
2022/06/11 04:34:20;;;;;;;2.93;1.27;;;;;;;;;;5047378;28;20572;-73
2022/06/11 04:36:47;;;;;;;1.50;1.50;;;;;;;;;;5048740;28;20430;-72
2022/06/11 04:39:16;;;;;;;1.73;1.73;;;;;;;;;;5045815;28;20434;-72
2022/06/11 04:41:42;;;;;;;2.63;1.80;;;;;;;;;;5039206;28;20438;-72
2022/06/11 04:44:08;;;;;;;1.50;1.23;;;;;;;;;;5046561;28;20918;-71
2022/06/11 04:46:34;;;;;;;2.37;1.50;;;;;;;;;;5046399;28;20434;-72
2022/06/11 04:49:00;;;;;;;7.60;1.60;;;;;;;;;;5044784;28;20946;-72
2022/06/11 04:51:26;;;;;;;2.03;1.27;;;;;;;;;;5047228;28;20473;-71
2022/06/11 04:53:53;;;;;;;2.30;1.90;;;;;;;;;;5045699;28;20493;-72
2022/06/11 04:56:21;;;;;;;3.03;1.60;;;;;;;;;;5041849;28;21715;-72
2022/06/11 04:58:48;;;;;;;5.13;1.27;;;;;;;;;;5048675;28;20441;-72
2022/06/11 05:01:14;;;;;;;1.40;1.40;;;;;;;;;;5044456;28;20438;-71
2022/06/11 05:03:40;;;;;;;10.47;1.60;;;;;;;;;;5046904;28;20442;-71
2022/06/11 05:06:06;;;;;;;1.97;1.60;;;;;;;;;;5042398;28;20519;-72
2022/06/11 05:08:33;;;;;;;1.27;1.20;;;;;;;;;;5045994;28;20442;-72
2022/06/11 05:10:59;;;;;;;1.33;1.33;;;;;;;;;;5044739;28;20438;-72
2022/06/11 05:13:25;;;;;;;1.17;1.17;;;;;;;;;;5047302;28;20473;-72
2022/06/11 05:15:54;;;;;;;1.30;1.30;;;;;;;;;;5045864;28;20426;-74
2022/06/11 05:18:21;;;;;;;1.70;1.60;;;;;;;;;;5046657;28;20504;-75
2022/06/11 05:20:47;;;;;;;3.87;1.73;;;;;;;;;;5040784;28;20512;-71
2022/06/11 05:23:13;;;;;;;4.20;1.13;;;;;;;;;;5046845;28;20491;-71
2022/06/11 05:25:40;;;;;;;3.17;1.10;;;;;;;;;;5047154;28;20434;-71
2022/06/11 05:28:07;;;;;;;1.60;1.43;;;;;;;;;;5047679;28;20449;-72
2022/06/11 05:30:34;;;;;;;3.23;1.57;;;;;;;;;;5049187;28;20503;-75
2022/06/11 05:33:00;;;;;;;1.53;1.43;;;;;;;;;;5044859;28;21025;-71
2022/06/11 05:35:28;;;;;;;1.40;1.30;;;;;;;;;;5050811;28;20919;-73
2022/06/11 05:37:55;;;;;;;1.73;1.63;;;;;;;;;;5049062;28;20445;-71
2022/06/11 05:40:23;;;;;;;3.53;2.00;;;;;;;;;;5050937;28;21489;-74
2022/06/11 05:42:49;;;;;;;3.70;1.63;;;;;;;;;;5051493;28;20431;-72
2022/06/11 05:45:16;;;;;;;2.60;2.37;;;;;;;;;;5050163;28;20422;-72
2022/06/11 05:47:44;;;;;;;2.27;2.10;;;;;;;;;;5043322;28;20481;-71
2022/06/11 05:50:11;;;;;;;2.80;2.70;;;;;;;;;;5048350;28;20458;-73
2022/06/11 05:52:39;;;;;;;2.67;2.33;;;;;;;;;;5046380;28;21001;-72
2022/06/11 05:55:06;;;;;;;3.00;2.80;;;;;;;;;;5045573;28;20521;-74
2022/06/11 05:57:34;;;;;;;3.70;2.43;;;;;;;;;;5050775;28;21001;-72
2022/06/11 06:00:02;;;;;;;4.70;4.33;;;;;;;;;;5047276;28;20836;-71
2022/06/11 06:02:28;;;;;;;7.63;3.87;;;;;;;;;;5044561;28;20514;-72
2022/06/11 06:04:54;;;;;;;2.90;2.80;;;;;;;;;;5048910;28;20488;-71
2022/06/11 06:07:20;;;;;;;8.17;2.60;;;;;;;;;;5047330;28;20465;-73
2022/06/11 06:09:47;;;;;;;2.10;2.10;;;;;;;;;;5050032;28;20430;-71
2022/06/11 06:12:14;;;;;;;3.17;2.50;;;;;;;;;;5048460;28;20979;-71
2022/06/11 06:14:40;;;;;;;6.33;2.43;;;;;;;;;;5048130;28;20496;-71
2022/06/11 06:17:06;;;;;;;2.80;2.70;;;;;;;;;;5046870;28;21072;-70
2022/06/11 06:19:32;;;;;;;2.93;2.60;;;;;;;;;;5046098;28;20957;-71
2022/06/11 06:21:58;;;;;;;7.93;2.83;;;;;;;;;;5048812;28;20434;-71
2022/06/11 06:24:24;;;;;;;4.63;2.50;;;;;;;;;;5049920;28;20426;-71
2022/06/11 06:26:50;;;;;;;5.70;3.10;;;;;;;;;;5049273;28;20513;-71
2022/06/11 06:29:16;;;;;;;2.83;2.63;;;;;;;;;;5043015;28;20538;-71
2022/06/11 06:31:42;;;;;;;5.30;2.93;;;;;;;;;;5048647;28;20426;-71
2022/06/11 06:34:08;;;;;;;4.33;3.00;;;;;;;;;;5045030;28;20490;-73
2022/06/11 06:36:34;;;;;;;2.97;2.63;;;;;;;;;;5047410;28;20434;-71
2022/06/11 06:39:00;;;;;;;2.77;2.57;;;;;;;;;;5049954;28;20509;-71
2022/06/11 06:41:26;;;;;;;2.83;2.73;;;;;;;;;;5048701;28;20483;-71
2022/06/11 06:43:52;;;;;;;3.20;2.90;;;;;;;;;;5047752;28;20596;-71
2022/06/11 06:46:19;;;;;;;3.33;2.93;;;;;;;;;;5047752;28;21091;-71
2022/06/11 06:48:46;;;;;;;3.10;2.80;;;;;;;;;;5046962;28;20446;-70
2022/06/11 06:51:12;;;;;;;5.83;5.03;;;;;;;;;;5046995;28;20469;-70
2022/06/11 06:53:42;;;;;;;3.90;2.97;;;;;;;;;;5049396;28;20493;-71
2022/06/11 06:56:09;;;;;;;4.80;2.90;;;;;;;;;;5046362;28;20926;-71
2022/06/11 06:58:35;;;;;;;1.87;1.77;;;;;;;;;;5049511;28;20519;-72
2022/06/11 07:01:02;;;;;;;2.43;2.23;;;;;;;;;;5049579;28;20426;-71
2022/06/11 07:03:28;;;;;;;2.70;2.60;;;;;;;;;;5047273;28;20521;-72
2022/06/11 07:05:53;;;;;;;2.70;2.60;;;;;;;;;;5045580;28;20525;-71
2022/06/11 07:08:20;;;;;;;3.03;2.87;;;;;;;;;;5046689;28;20438;-71
2022/06/11 07:10:50;;;;;;;3.03;2.83;;;;;;;;;;5048562;28;20457;-70
2022/06/11 07:13:17;;;;;;;2.90;2.80;;;;;;;;;;5044986;28;20664;-74
2022/06/11 07:15:44;;;;;;;4.93;2.60;;;;;;;;;;5044570;28;20434;-70
2022/06/11 07:18:22;;;;;;;2.67;2.53;;;;;;;;;;5048044;28;20905;-71
2022/06/11 07:20:49;;;;;;;2.87;2.07;;;;;;;;;;5046238;28;20433;-71
2022/06/11 07:23:17;;;;;;;2.40;2.30;;;;;;;;;;5048992;28;20403;-70
2022/06/11 07:25:43;;;;;;;2.40;2.27;;;;;;;;;;5045651;28;21020;-70
2022/06/11 07:28:22;;;;;;;2.53;2.33;;;;;;;;;;5047264;28;20435;-71
2022/06/11 07:30:49;;;;;;;2.40;2.20;;;;;;;;;;5042147;28;20794;-73
2022/06/11 07:33:17;;;;;;;4.33;2.80;;;;;;;;;;5042937;28;20482;-73
2022/06/11 07:35:44;;;;;;;3.27;3.07;;;;;;;;;;5036390;28;20481;-71
2022/06/11 07:38:11;;;;;;;5.70;2.20;;;;;;;;;;5032913;28;20435;-71
2022/06/11 07:40:37;;;;;;;4.20;4.00;;;;;;;;;;5045495;28;20434;-72
2022/06/11 07:43:06;;;;;;;2.93;2.50;;;;;;;;;;5045771;28;20968;-71
2022/06/11 07:45:32;;;;;;;2.40;2.30;;;;;;;;;;5047896;28;20525;-73
2022/06/11 07:47:58;;;;;;;3.60;2.40;;;;;;;;;;5046730;28;21065;-72
2022/06/11 07:50:26;;;;;;;2.90;2.70;;;;;;;;;;5043152;28;20434;-71
2022/06/11 07:52:52;;;;;;;4.93;2.13;;;;;;;;;;5049245;28;20547;-71
2022/06/11 07:55:19;;;;;;;3.17;2.13;;;;;;;;;;5043497;28;20438;-70
2022/06/11 07:57:45;;;;;;;2.17;2.07;;;;;;;;;;5046836;28;20764;-71
2022/06/11 08:00:13;;;;;;;9.13;2.17;;;;;;;;;;5040158;28;20971;-73
2022/06/11 08:02:39;;;;;;;4.83;2.50;;;;;;;;;;5045091;28;20799;-71
2022/06/11 08:05:05;;;;;;;2.53;2.40;;;;;;;;;;5047764;28;20439;-70
2022/06/11 08:07:31;;;;;;;4.23;2.50;;;;;;;;;;5046184;28;20476;-70
2022/06/11 08:09:58;;;;;;;2.50;2.20;;;;;;;;;;5046008;28;20448;-71
2022/06/11 08:12:24;;;;;;;2.73;1.90;;;;;;;;;;5044722;28;20465;-72
2022/06/11 08:14:50;;;;;;;4.00;1.93;;;;;;;;;;5047102;28;21106;-71
2022/06/11 08:17:16;;;;;;;3.73;2.27;;;;;;;;;;5045087;28;20419;-71
2022/06/11 08:19:43;;;;;;;7.97;2.23;;;;;;;;;;5046593;28;20996;-71
2022/06/11 08:22:09;;;;;;;5.30;1.90;;;;;;;;;;5045147;28;20423;-72
2022/06/11 08:24:35;;;;;;;8.70;2.63;;;;;;;;;;5048517;28;20426;-70
2022/06/11 08:27:01;;;;;;;2.13;1.60;;;;;;;;;;5043347;28;20467;-71
2022/06/11 08:29:27;;;;;;;2.47;1.90;;;;;;;;;;5046570;28;20436;-74
2022/06/11 08:31:52;;;;;;;2.30;1.93;;;;;;;;;;5045292;28;20945;-71
2022/06/11 08:34:18;;;;;;;7.90;2.23;;;;;;;;;;5040827;28;20486;-71
2022/06/11 08:36:44;;;;;;;3.23;1.90;;;;;;;;;;5048910;28;20434;-71
2022/06/11 08:39:10;;;;;;;3.50;2.00;;;;;;;;;;5048597;28;20484;-71
2022/06/11 08:41:36;;;;;;;1.70;1.50;;;;;;;;;;5044800;28;20422;-72
2022/06/11 08:44:08;;;;;;;6.80;1.20;;;;;;;;;;5046954;28;20869;-71
2022/06/11 08:46:35;;;;;;;1.50;1.40;;;;;;;;;;5046925;28;20529;-73
2022/06/11 08:49:04;;;;;;;4.53;2.00;;;;;;;;;;5046513;28;20553;-74
2022/06/11 08:51:41;;;;;;;1.70;1.60;;;;;;;;;;5049029;28;20565;-71
2022/06/11 08:54:08;;;;;;;3.60;1.70;;;;;;;;;;5048073;28;20486;-70
2022/06/11 08:56:37;;;;;;;1.60;1.50;;;;;;;;;;5047972;28;20474;-71
2022/06/11 08:59:12;;;;;;;3.77;1.87;;;;;;;;;;5049271;28;20434;-72
2022/06/11 09:01:41;;;;;;;1.13;1.13;;;;;;;;;;5049062;28;20429;-72
2022/06/11 09:04:19;;;;;;;1.53;1.37;;;;;;;;;;5047155;28;20448;-72
2022/06/11 09:06:54;;;;;;;2.60;1.40;;;;;;;;;;5046158;28;20511;-71
2022/06/11 09:09:26;;;;;;;2.20;1.07;;;;;;;;;;5050177;28;20526;-71
2022/06/11 09:12:11;;;;;;;0.73;0.73;;;;;;;;;;5052143;28;20429;-73
2022/06/11 09:14:43;;;;;;;1.20;1.10;;;;;;;;;;5046551;28;20992;-71
2022/06/11 09:17:28;;;;;;;4.80;0.90;;;;;;;;;;5049100;28;20418;-70
2022/06/11 09:20:17;;;;;;;1.50;1.40;;;;;;;;;;5047235;28;20438;-71
2022/06/11 09:23:02;;;;;;;10.13;1.40;;;;;;;;;;5048246;28;20446;-72
2022/06/11 09:26:03;;;;;;;1.27;0.90;;;;;;;;;;5051125;28;20471;-73
2022/06/11 09:28:41;;;;;;;4.30;1.37;;;;;;;;;;5046248;28;20962;-70
2022/06/11 09:31:13;;;;;;;1.17;1.10;;;;;;;;;;5047535;28;20838;-71
2022/06/11 09:33:48;;;;;;;1.57;1.27;;;;;;;;;;5047560;28;20479;-72
2022/06/11 09:36:18;;;;;;;1.60;1.20;;;;;;;;;;5047843;28;20444;-74
2022/06/11 09:38:54;;;;;;;1.57;1.20;;;;;;;;;;5050532;28;20890;-73
2022/06/11 09:41:43;;;;;;;4.37;1.10;;;;;;;;;;5052325;28;20501;-72
2022/06/11 09:44:15;;;;;;;1.53;1.53;;;;;;;;;;5047617;28;20802;-71
2022/06/11 09:46:44;;;;;;;1.30;1.10;;;;;;;;;;5048944;28;20453;-71
2022/06/11 09:49:22;;;;;;;1.80;1.10;;;;;;;;;;5049708;28;20934;-74
2022/06/11 09:52:14;;;;;;;1.90;1.57;;;;;;;;;;5050752;28;20473;-72
2022/06/11 09:54:45;;;;;;;2.20;1.20;;;;;;;;;;5051649;28;20477;-72
2022/06/11 09:57:11;;;;;;;2.53;0.83;;;;;;;;;;5050515;28;20418;-71
2022/06/11 09:59:40;;;;;;;3.50;1.57;;;;;;;;;;5047921;28;20430;-73
2022/06/11 10:04:56;;;;;;;9.20;1.10;;;;;;;;;;5034392;28;20540;-74
2022/06/11 10:07:28;;;;;;;8.37;1.30;;;;;;;;;;5045742;28;20445;-76
2022/06/11 10:10:06;;;;;;;0.70;0.70;;;;;;;;;;5044990;28;20902;-71
2022/06/11 10:12:36;;;;;;;1.03;1.03;;;;;;;;;;5038686;28;20485;-71
2022/06/11 10:15:11;;;;;;;3.17;1.17;;;;;;;;;;5048451;28;20847;-72
2022/06/11 10:17:40;;;;;;;2.30;1.20;;;;;;;;;;5048725;28;20469;-71
2022/06/11 10:20:13;;;;;;;1.47;1.17;;;;;;;;;;5049660;28;20429;-71
2022/06/11 10:22:42;;;;;;;0.93;0.93;;;;;;;;;;5050495;28;20414;-71
2022/06/11 10:25:20;;;;;;;2.87;1.53;;;;;;;;;;5049000;28;20442;-71
2022/06/11 10:27:49;;;;;;;3.47;1.50;;;;;;;;;;5051532;28;20467;-70
2022/06/11 10:30:31;;;;;;;7.00;1.57;;;;;;;;;;5050842;28;20415;-71
2022/06/11 10:32:57;;;;;;;1.90;1.13;;;;;;;;;;5050841;28;20477;-72
2022/06/11 10:35:27;;;;;;;1.10;1.10;;;;;;;;;;5051562;28;20853;-71
2022/06/11 10:38:00;;;;;;;2.13;1.27;;;;;;;;;;5049855;28;20977;-71
2022/06/11 10:40:26;;;;;;;2.50;1.20;;;;;;;;;;5050693;28;20926;-71
2022/06/11 10:43:01;;;;;;;1.23;1.10;;;;;;;;;;5051163;28;20503;-71
2022/06/11 10:45:27;;;;;;;2.87;0.87;;;;;;;;;;5051127;28;20563;-71
2022/06/11 10:47:55;;;;;;;1.10;1.10;;;;;;;;;;5048164;28;20434;-71
2022/06/11 10:50:23;;;;;;;1.47;1.10;;;;;;;;;;5047683;28;20434;-71
2022/06/11 10:53:08;;;;;;;1.00;1.00;;;;;;;;;;5050557;28;20934;-71
2022/06/11 10:55:34;;;;;;;1.57;1.47;;;;;;;;;;5050878;28;20517;-71
2022/06/11 10:58:12;;;;;;;3.57;1.13;;;;;;;;;;5050754;28;20510;-71
2022/06/11 11:00:45;;;;;;;4.03;1.37;;;;;;;;;;5050568;28;21291;-71
2022/06/11 11:03:21;;;;;;;3.20;1.20;;;;;;;;;;5049214;28;20521;-70
2022/06/11 11:05:51;;;;;;;1.30;1.30;;;;;;;;;;5047809;28;20950;-71
2022/06/11 11:08:17;;;;;;;1.67;1.67;;;;;;;;;;5050535;28;20430;-71
2022/06/11 11:10:45;;;;;;;2.70;1.87;;;;;;;;;;5049150;28;20968;-71
2022/06/11 11:13:20;;;;;;;8.07;1.20;;;;;;;;;;5051061;28;20524;-71
2022/06/11 11:15:52;;;;;;;2.20;1.33;;;;;;;;;;5049399;28;20789;-71
2022/06/11 11:18:20;;;;;;;4.67;1.27;;;;;;;;;;5049960;28;20422;-71
2022/06/11 11:20:47;;;;;;;6.97;1.57;;;;;;;;;;5046604;28;20434;-70
2022/06/11 11:23:19;;;;;;;3.20;0.80;;;;;;;;;;5050047;28;20418;-71
2022/06/11 11:25:56;;;;;;;4.43;0.90;;;;;;;;;;5050372;28;20458;-72
2022/06/11 11:28:29;;;;;;;1.10;1.10;;;;;;;;;;5050024;28;20471;-72
2022/06/11 11:31:03;;;;;;;3.37;0.90;;;;;;;;;;5049997;28;20433;-71
2022/06/11 11:33:35;;;;;;;9.30;1.30;;;;;;;;;;5049589;28;20462;-72
2022/06/11 11:36:01;;;;;;;0.70;0.70;;;;;;;;;;5048582;28;20434;-71
2022/06/11 11:38:28;;;;;;;0.97;0.83;;;;;;;;;;5050091;28;20468;-71
2022/06/11 11:41:01;;;;;;;1.50;1.50;;;;;;;;;;5049703;28;20422;-71
2022/06/11 11:43:35;;;;;;;1.17;1.07;;;;;;;;;;5050234;28;20492;-72
2022/06/11 11:46:03;;;;;;;0.97;0.93;;;;;;;;;;5049999;28;20964;-71
2022/06/11 11:48:31;;;;;;;1.47;1.47;;;;;;;;;;5048649;28;20505;-71
2022/06/11 11:51:00;;;;;;;2.27;1.97;;;;;;;;;;5048462;28;20549;-72
2022/06/11 11:53:32;;;;;;;1.90;1.07;;;;;;;;;;5049666;28;20504;-76
2022/06/11 11:56:04;;;;;;;1.27;1.23;;;;;;;;;;5049905;28;20419;-71
2022/06/11 11:58:40;;;;;;;1.37;1.37;;;;;;;;;;5049813;28;20581;-71
2022/06/11 12:01:06;;;;;;;1.03;1.03;;;;;;;;;;5048111;28;20430;-71
2022/06/11 12:03:40;;;;;;;1.90;1.20;;;;;;;;;;5049250;28;20446;-71
2022/06/11 12:06:07;;;;;;;1.53;1.07;;;;;;;;;;5049124;28;20506;-71
2022/06/11 12:08:37;;;;;;;2.57;1.00;;;;;;;;;;5049526;28;20766;-71
2022/06/11 12:11:04;;;;;;;0.80;0.80;;;;;;;;;;5049619;28;20956;-71
2022/06/11 12:13:32;;;;;;;1.83;0.80;;;;;;;;;;5049042;28;20501;-69
2022/06/11 12:16:06;;;;;;;1.00;0.87;;;;;;;;;;5045785;28;20439;-71
2022/06/11 12:18:32;;;;;;;0.90;0.90;;;;;;;;;;5048993;28;20848;-71
2022/06/11 12:21:04;;;;;;;1.20;1.20;;;;;;;;;;5049333;28;20933;-71
2022/06/11 12:23:30;;;;;;;3.00;0.90;;;;;;;;;;5049472;28;20464;-72
2022/06/11 12:26:05;;;;;;;2.27;1.40;;;;;;;;;;5045786;28;20441;-71
2022/06/11 12:28:34;;;;;;;4.10;1.60;;;;;;;;;;5049270;28;20430;-71
2022/06/11 12:31:00;;;;;;;3.30;1.10;;;;;;;;;;5049229;28;20410;-71
2022/06/11 12:33:27;;;;;;;4.80;1.00;;;;;;;;;;5048971;28;20516;-71
2022/06/11 12:36:12;;;;;;;1.10;1.00;;;;;;;;;;5049313;28;20525;-71
2022/06/11 12:38:38;;;;;;;1.00;1.00;;;;;;;;;;5052494;28;20484;-72
2022/06/11 12:41:14;;;;;;;2.93;0.93;;;;;;;;;;5049415;28;20450;-71
2022/06/11 12:43:42;;;;;;;6.17;1.10;;;;;;;;;;5053271;28;20221;-73
2022/06/11 12:46:38;;;;;;;1.47;1.03;;;;;;;;;;5053142;28;20419;-74
2022/06/11 12:49:23;;;;;;;1.70;1.33;;;;;;;;;;5048108;28;20976;-73
2022/06/11 12:52:07;;;;;;;2.63;1.13;;;;;;;;;;5045668;28;20834;-73
2022/06/11 12:54:40;;;;;;;1.07;1.07;;;;;;;;;;5051354;28;20480;-72
2022/06/11 12:57:09;;;;;;;2.70;2.27;;;;;;;;;;5050203;28;20425;-70
2022/06/11 12:59:35;;;;;;;1.53;1.10;;;;;;;;;;5053006;28;20796;-72
2022/06/11 13:02:13;;;;;;;1.30;1.30;;;;;;;;;;5051384;28;20426;-71
2022/06/11 13:04:59;;;;;;;1.20;1.17;;;;;;;;;;5052437;28;20226;-71
2022/06/11 13:07:25;;;;;;;1.00;1.00;;;;;;;;;;5052850;28;20481;-71
2022/06/11 13:09:58;;;;;;;0.77;0.77;;;;;;;;;;5053001;28;21096;-71
2022/06/11 13:12:43;;;;;;;1.13;1.13;;;;;;;;;;5049209;28;20622;-71
2022/06/11 13:15:39;;;;;;;2.63;1.13;;;;;;;;;;5052916;28;20541;-71
2022/06/11 13:18:05;;;;;;;2.30;1.27;;;;;;;;;;5032868;28;20421;-72
2022/06/11 13:20:42;;;;;;;1.20;1.10;;;;;;;;;;5052496;28;20509;-71
2022/06/11 13:23:27;;;;;;;0.80;0.80;;;;;;;;;;5052471;28;20468;-74
2022/06/11 13:26:01;;;;;;;1.17;1.10;;;;;;;;;;5050663;28;20444;-71
2022/06/11 13:28:35;;;;;;;1.10;1.10;;;;;;;;;;5051711;28;20434;-73
2022/06/11 13:31:14;;;;;;;1.20;1.10;;;;;;;;;;5052307;28;20414;-71
2022/06/11 13:33:48;;;;;;;1.63;1.10;;;;;;;;;;5051819;28;20481;-71
2022/06/11 13:36:20;;;;;;;1.20;1.10;;;;;;;;;;5052442;28;20922;-71
2022/06/11 13:38:53;;;;;;;1.80;0.90;;;;;;;;;;5052645;28;20430;-71
2022/06/11 13:41:27;;;;;;;1.13;1.13;;;;;;;;;;5049922;28;20452;-71
2022/06/11 13:43:59;;;;;;;1.10;1.10;;;;;;;;;;5049531;28;20438;-71
2022/06/11 13:46:31;;;;;;;3.20;1.07;;;;;;;;;;5052101;28;20449;-71
2022/06/11 13:49:05;;;;;;;0.80;0.70;;;;;;;;;;5050827;28;20425;-71
2022/06/11 13:51:32;;;;;;;2.47;0.80;;;;;;;;;;5051699;28;20966;-71
2022/06/11 13:56:58;;;;;;;0.70;0.70;;;;;;;;;;5051247;28;20446;-71
2022/06/11 13:59:31;;;;;;;2.70;1.23;;;;;;;;;;5048752;28;20536;-71
2022/06/11 14:02:06;;;;;;;1.80;1.20;;;;;;;;;;5051353;28;20440;-71
2022/06/11 14:04:42;;;;;;;1.87;0.90;;;;;;;;;;5050184;28;20441;-72
2022/06/11 14:07:09;;;;;;;9.73;1.13;;;;;;;;;;5050570;28;20908;-71
2022/06/11 14:12:41;;;;;;;0.63;0.63;;;;;;;;;;5050515;28;20469;-71
2022/06/11 14:15:14;;;;;;;5.20;0.90;;;;;;;;;;5048799;28;20855;-71
2022/06/11 14:17:48;;;;;;;0.90;0.90;;;;;;;;;;5051158;28;20423;-71
2022/06/11 14:20:19;;;;;;;4.30;0.93;;;;;;;;;;5051114;28;20472;-71
2022/06/11 14:22:48;;;;;;;2.93;0.90;;;;;;;;;;5051603;28;20419;-71
2022/06/11 14:25:34;;;;;;;0.83;0.80;;;;;;;;;;5051480;28;20415;-72
2022/06/11 14:28:22;;;;;;;1.03;0.70;;;;;;;;;;5049874;28;20721;-71
2022/06/11 14:30:48;;;;;;;1.43;0.90;;;;;;;;;;5043617;28;20449;-71
2022/06/11 14:33:14;;;;;;;1.10;1.00;;;;;;;;;;5050604;28;20869;-71
2022/06/11 14:35:49;;;;;;;1.53;1.43;;;;;;;;;;5051222;28;20521;-71
2022/06/11 14:38:29;;;;;;;1.07;0.80;;;;;;;;;;5051318;28;20425;-72
2022/06/11 14:41:04;;;;;;;0.87;0.87;;;;;;;;;;5050896;28;20516;-71
2022/06/11 14:43:50;;;;;;;1.97;0.80;;;;;;;;;;5049256;28;20436;-71
2022/06/11 14:46:32;;;;;;;1.47;1.13;;;;;;;;;;5051273;28;20519;-71
2022/06/11 14:48:59;;;;;;;1.17;0.83;;;;;;;;;;5049408;28;20438;-71
2022/06/11 14:51:30;;;;;;;1.00;1.00;;;;;;;;;;5050671;28;20830;-70
2022/06/11 14:54:14;;;;;;;0.90;0.90;;;;;;;;;;5050703;28;20482;-71
2022/06/11 14:56:46;;;;;;;0.93;0.93;;;;;;;;;;5049557;28;20548;-71
2022/06/11 14:59:15;;;;;;;0.80;0.80;;;;;;;;;;5048967;28;20930;-73
2022/06/11 15:02:00;;;;;;;1.20;1.10;;;;;;;;;;5047669;28;20431;-71
2022/06/11 15:04:36;;;;;;;1.17;1.07;;;;;;;;;;5050379;28;21480;-71
2022/06/11 15:07:12;;;;;;;0.80;0.80;;;;;;;;;;5050796;28;20806;-71
2022/06/11 15:09:44;;;;;;;4.83;1.17;;;;;;;;;;5050728;28;20410;-71
2022/06/11 15:12:29;;;;;;;2.50;0.67;;;;;;;;;;5049937;28;20426;-72
2022/06/11 15:15:02;;;;;;;1.73;1.63;;;;;;;;;;5047087;28;20497;-71